createdAt,value
2018-09-20T00:00:21.160Z,96099.55
2018-09-20T00:02:55.647Z,96098.74
2018-09-20T00:05:30.004Z,96098.47
2018-09-20T00:08:04.484Z,96099.30
2018-09-20T00:10:39.140Z,96093.94
2018-09-20T00:13:13.630Z,96096.58
2018-09-20T00:15:48.129Z,96089.88
2018-09-20T00:18:22.591Z,96092.11
2018-09-20T00:20:57.203Z,96088.27
2018-09-20T00:23:32.275Z,96090.70
2018-09-20T00:26:07.251Z,96083.22
2018-09-20T00:28:41.656Z,96081.22
2018-09-20T00:31:15.968Z,96079.19
2018-09-20T00:33:50.356Z,96083.06
2018-09-20T00:36:24.944Z,96080.02
2018-09-20T00:38:59.903Z,96084.46
2018-09-20T00:41:34.630Z,96089.73
2018-09-20T00:44:10.270Z,96086.51
2018-09-20T00:46:45.159Z,96087.89
2018-09-20T00:49:19.600Z,96088.21
2018-09-20T00:51:54.693Z,96090.84
2018-09-20T00:54:29.153Z,96084.77
2018-09-20T00:57:03.839Z,96086.81
2018-09-20T00:59:38.471Z,96086.59
2018-09-20T01:02:13.928Z,96090.84
2018-09-20T01:04:48.460Z,96088.63
2018-09-20T01:07:22.991Z,96088.11
2018-09-20T01:09:57.583Z,96095.80
2018-09-20T01:12:31.883Z,96089.19
2018-09-20T01:15:07.243Z,96085.59
2018-09-20T01:17:41.938Z,96089.09
2018-09-20T01:20:17.189Z,96093.76
2018-09-20T01:22:51.900Z,96096.67
2018-09-20T01:25:26.692Z,96090.11
2018-09-20T01:28:01.229Z,96097.70
2018-09-20T01:30:35.959Z,96098.20
2018-09-20T01:33:10.534Z,96093.73
2018-09-20T01:35:45.371Z,96102.02
2018-09-20T01:38:20.131Z,96103.83
2018-09-20T01:40:54.608Z,96100.40
2018-09-20T01:43:29.082Z,96104.10
2018-09-20T01:46:03.507Z,96101.98
2018-09-20T01:48:39.100Z,96104.52
2018-09-20T01:51:13.677Z,96106.42
2018-09-20T01:53:48.379Z,96106.91
2018-09-20T01:56:22.819Z,96101.77
2018-09-20T01:58:57.224Z,96099.80
2018-09-20T02:01:31.753Z,96108.06
2018-09-20T02:04:06.180Z,96102.69
2018-09-20T02:06:40.651Z,96102.79
2018-09-20T02:09:15.331Z,96099.54
2018-09-20T02:11:49.675Z,96094.20
2018-09-20T02:14:24.128Z,96097.83
2018-09-20T02:16:58.775Z,96093.49
2018-09-20T02:19:33.779Z,96093.59
2018-09-20T02:22:08.344Z,96096.08
2018-09-20T02:24:42.830Z,96094.47
2018-09-20T02:27:18.227Z,96096.89
2018-09-20T02:29:52.587Z,96098.30
2018-09-20T02:32:27.150Z,96098.30
2018-09-20T02:35:02.083Z,96100.21
2018-09-20T02:37:36.722Z,96096.69
2018-09-20T02:40:11.296Z,96099.50
2018-09-20T02:42:45.807Z,96098.26
2018-09-20T02:45:20.600Z,96101.08
2018-09-20T02:47:55.120Z,96099.88
2018-09-20T02:50:29.493Z,96099.57
2018-09-20T02:53:04.355Z,96094.73
2018-09-20T02:55:38.712Z,96094.42
2018-09-20T02:58:13.072Z,96098.97
2018-09-20T03:00:47.955Z,96100.57
2018-09-20T03:03:22.471Z,96103.09
2018-09-20T03:05:56.743Z,96105.05
2018-09-20T03:08:31.798Z,96103.42
2018-09-20T03:11:06.228Z,96098.14
2018-09-20T03:13:40.671Z,96097.73
2018-09-20T03:16:15.507Z,96096.42
2018-09-20T03:18:50.555Z,96102.31
2018-09-20T03:21:24.836Z,96102.49
2018-09-20T03:23:59.568Z,96098.63
2018-09-20T03:26:33.993Z,96099.79
2018-09-20T03:29:08.881Z,96095.20
2018-09-20T03:31:43.596Z,96103.30
2018-09-20T03:34:18.576Z,96096.84
2018-09-20T03:36:53.310Z,96101.55
2018-09-20T03:39:27.670Z,96108.15
2018-09-20T03:42:02.475Z,96105.00
2018-09-20T03:44:37.255Z,96108.42
2018-09-20T03:47:11.687Z,96105.70
2018-09-20T03:49:46.361Z,96110.02
2018-09-20T03:52:20.996Z,96104.64
2018-09-20T03:54:55.289Z,96105.44
2018-09-20T03:57:29.979Z,96103.60
2018-09-20T04:00:04.640Z,96109.03
2018-09-20T04:02:39.300Z,96116.38
2018-09-20T04:05:14.285Z,96111.42
2018-09-20T04:07:49.412Z,96113.53
2018-09-20T04:10:24.423Z,96112.64
2018-09-20T04:12:59.327Z,96115.95
2018-09-20T04:15:33.755Z,96115.56
2018-09-20T04:18:08.277Z,96111.76
2018-09-20T04:20:43.226Z,96108.64
2018-09-20T04:23:18.024Z,96110.03
2018-09-20T04:25:52.635Z,96105.99
2018-09-20T04:28:27.236Z,96108.00
2018-09-20T04:31:02.068Z,96102.45
2018-09-20T04:33:36.765Z,96113.97
2018-09-20T04:36:11.368Z,96102.27
2018-09-20T04:38:46.165Z,96109.13
2018-09-20T04:41:20.834Z,96105.20
2018-09-20T04:43:55.312Z,96107.51
2018-09-20T04:46:30.132Z,96109.73
2018-09-20T04:49:04.859Z,96105.13
2018-09-20T04:51:39.241Z,96112.66
2018-09-20T04:54:13.984Z,96112.77
2018-09-20T04:56:48.627Z,96118.20
2018-09-20T04:59:23.484Z,96122.12
2018-09-20T05:01:58.819Z,96122.00
2018-09-20T05:04:33.362Z,96117.47
2018-09-20T05:07:07.885Z,96121.20
2018-09-20T05:09:43.239Z,96117.00
2018-09-20T05:12:17.553Z,96119.45
2018-09-20T05:14:51.990Z,96129.92
2018-09-20T05:17:26.611Z,96126.05
2018-09-20T05:20:01.168Z,96128.42
2018-09-20T05:22:36.007Z,96126.39
2018-09-20T05:25:13.852Z,96136.08
2018-09-20T05:27:52.208Z,96135.39
2018-09-20T05:30:26.695Z,96142.27
2018-09-20T05:33:01.288Z,96143.20
2018-09-20T05:35:36.245Z,96135.54
2018-09-20T05:38:11.832Z,96141.58
2018-09-20T05:40:46.649Z,96135.84
2018-09-20T05:43:21.479Z,96142.08
2018-09-20T05:45:56.113Z,96143.00
2018-09-20T05:48:30.753Z,96141.31
2018-09-20T05:51:05.512Z,96143.55
2018-09-20T05:53:40.065Z,96135.95
2018-09-20T05:56:14.939Z,96141.42
2018-09-20T05:58:52.472Z,96144.57
2018-09-20T06:01:26.883Z,96138.41
2018-09-20T06:04:01.588Z,96138.63
2018-09-20T06:06:37.364Z,96136.37
2018-09-20T06:09:12.237Z,96142.25
2018-09-20T06:11:47.444Z,96142.92
2018-09-20T06:14:22.591Z,96149.52
2018-09-20T06:16:57.184Z,96154.92
2018-09-20T06:19:31.623Z,96157.88
2018-09-20T06:22:06.580Z,96152.19
2018-09-20T06:24:41.167Z,96156.98
2018-09-20T06:27:15.616Z,96153.38
2018-09-20T06:29:50.325Z,96157.02
2018-09-20T06:32:25.025Z,96158.97
2018-09-20T06:34:59.609Z,96161.73
2018-09-20T06:37:34.333Z,96159.42
2018-09-20T06:40:09.745Z,96162.69
2018-09-20T06:42:44.176Z,96162.19
2018-09-20T06:45:18.995Z,96163.12
2018-09-20T06:47:53.395Z,96164.94
2018-09-20T06:50:28.895Z,96163.99
2018-09-20T06:53:03.719Z,96168.13
2018-09-20T06:55:39.238Z,96174.39
2018-09-20T06:58:13.536Z,96173.61
2018-09-20T07:00:48.080Z,96178.94
2018-09-20T07:03:22.776Z,96183.89
2018-09-20T07:05:57.360Z,96185.09
2018-09-20T07:08:31.988Z,96182.26
2018-09-20T07:11:07.080Z,96183.65
2018-09-20T07:13:42.070Z,96182.76
2018-09-20T07:16:17.481Z,96182.64
2018-09-20T07:18:52.423Z,96187.48
2018-09-20T07:21:26.731Z,96185.45
2018-09-20T07:24:02.859Z,96185.39
2018-09-20T07:26:37.297Z,96181.52
2018-09-20T07:29:12.723Z,96178.25
2018-09-20T07:31:47.363Z,96185.36
2018-09-20T07:34:21.755Z,96184.58
2018-09-20T07:36:56.204Z,96182.63
2018-09-20T07:39:31.217Z,96181.45
2018-09-20T07:42:05.856Z,96183.01
2018-09-20T07:44:40.515Z,96180.19
2018-09-20T07:47:15.156Z,96178.55
2018-09-20T07:49:50.016Z,96175.38
2018-09-20T07:52:24.343Z,96182.63
2018-09-20T07:54:58.717Z,96178.91
2018-09-20T07:57:33.025Z,96183.49
2018-09-20T08:00:07.324Z,96178.73
2018-09-20T08:02:41.640Z,96181.36
2018-09-20T08:05:16.957Z,96175.38
2018-09-20T08:07:51.695Z,96176.36
2018-09-20T08:10:26.469Z,96174.25
2018-09-20T08:13:01.014Z,96165.14
2018-09-20T08:15:36.308Z,96166.66
2018-09-20T08:18:11.264Z,96170.63
2018-09-20T08:20:49.814Z,96156.55
2018-09-20T08:23:24.496Z,96155.23
2018-09-20T08:25:59.283Z,96155.93
2018-09-20T08:28:33.879Z,96156.73
2018-09-20T08:31:08.609Z,96160.09
2018-09-20T08:33:43.191Z,96158.49
2018-09-20T08:36:17.579Z,96165.25
2018-09-20T08:38:53.520Z,96157.43
2018-09-20T08:41:27.829Z,96165.20
2018-09-20T08:44:02.801Z,96157.77
2018-09-20T08:46:37.157Z,96152.87
2018-09-20T08:49:11.765Z,96152.26
2018-09-20T08:51:46.404Z,96145.93
2018-09-20T08:54:21.026Z,96143.14
2018-09-20T08:56:55.594Z,96149.02
2018-09-20T08:59:30.143Z,96152.35
2018-09-20T09:02:05.156Z,96141.62
2018-09-20T09:04:40.092Z,96142.84
2018-09-20T09:07:15.192Z,96141.70
2018-09-20T09:09:51.261Z,96130.80
2018-09-20T09:12:25.986Z,96130.09
2018-09-20T09:15:00.832Z,96127.73
2018-09-20T09:17:35.270Z,96129.41
2018-09-20T09:20:10.289Z,96128.76
2018-09-20T09:22:45.124Z,96129.47
2018-09-20T09:25:19.523Z,96130.69
2018-09-20T09:27:54.242Z,96126.73
2018-09-20T09:30:28.773Z,96119.55
2018-09-20T09:33:04.039Z,96121.73
2018-09-20T09:35:38.725Z,96119.08
2018-09-20T09:38:13.428Z,96111.38
2018-09-20T09:40:48.661Z,96118.33
2018-09-20T09:43:23.566Z,96109.48
2018-09-20T09:45:58.088Z,96112.18
2018-09-20T09:48:32.536Z,96111.08
2018-09-20T09:51:07.591Z,96112.70
2018-09-20T09:53:42.052Z,96103.31
2018-09-20T09:56:16.504Z,96099.25
2018-09-20T09:58:51.299Z,96095.59
2018-09-20T10:01:26.112Z,96089.91
2018-09-20T10:04:00.756Z,96087.25
2018-09-20T10:06:35.186Z,96091.30
2018-09-20T10:09:10.804Z,96081.02
2018-09-20T10:11:45.793Z,96072.88
2018-09-20T10:14:20.528Z,96071.55
2018-09-20T10:16:55.335Z,96069.09
2018-09-20T10:19:29.687Z,96062.53
2018-09-20T10:22:04.739Z,96059.61
2018-09-20T10:24:39.695Z,96054.73
2018-09-20T10:27:14.323Z,96048.17
2018-09-20T10:29:48.824Z,96048.56
2018-09-20T10:32:23.700Z,96052.44
2018-09-20T10:34:58.376Z,96048.27
2018-09-20T10:37:34.158Z,96042.19
2018-09-20T10:40:09.174Z,96041.70
2018-09-20T10:42:43.632Z,96038.31
2018-09-20T10:45:18.413Z,96038.70
2018-09-20T10:47:53.092Z,96038.81
2018-09-20T10:50:27.772Z,96035.11
2018-09-20T10:53:02.624Z,96038.08
2018-09-20T10:55:37.079Z,96035.52
2018-09-20T10:58:11.547Z,96034.98
2018-09-20T11:00:46.030Z,96030.39
2018-09-20T11:03:20.806Z,96019.23
2018-09-20T11:05:55.414Z,96028.69
2018-09-20T11:08:30.183Z,96026.03
2018-09-20T11:11:05.295Z,96019.29
2018-09-20T11:13:39.773Z,96017.39
2018-09-20T11:16:14.389Z,96015.66
2018-09-20T11:18:49.592Z,96019.09
2018-09-20T11:21:24.392Z,96013.55
2018-09-20T11:23:59.219Z,96009.16
2018-09-20T11:26:34.060Z,96011.30
2018-09-20T11:29:08.764Z,96009.47
2018-09-20T11:31:43.356Z,95999.09
2018-09-20T11:34:17.895Z,95999.16
2018-09-20T11:36:52.388Z,95998.94
2018-09-20T11:39:27.160Z,95996.02
2018-09-20T11:42:02.099Z,95993.03
2018-09-20T11:44:36.791Z,95986.73
2018-09-20T11:47:11.205Z,95991.97
2018-09-20T11:49:45.920Z,95986.81
2018-09-20T11:52:20.391Z,95980.45
2018-09-20T11:54:55.275Z,95970.60
2018-09-20T11:57:29.556Z,95973.86
2018-09-20T12:00:04.417Z,95968.69
2018-09-20T12:02:39.308Z,95966.77
2018-09-20T12:05:13.680Z,95966.81
2018-09-20T12:07:48.476Z,95965.75
2018-09-20T12:10:22.940Z,95962.56
2018-09-20T12:12:57.392Z,95963.53
2018-09-20T12:15:32.884Z,95960.74
2018-09-20T12:18:07.357Z,95955.48
2018-09-20T12:20:42.013Z,95950.47
2018-09-20T12:23:16.705Z,95942.60
2018-09-20T12:25:51.549Z,95939.02
2018-09-20T12:28:26.943Z,95939.48
2018-09-20T12:31:01.225Z,95935.54
2018-09-20T12:33:36.072Z,95933.50
2018-09-20T12:36:11.212Z,95936.86
2018-09-20T12:38:46.262Z,95934.50
2018-09-20T12:41:21.036Z,95931.69
2018-09-20T12:43:56.324Z,95931.69
2018-09-20T12:46:31.724Z,95920.55
2018-09-20T12:49:06.011Z,95924.36
2018-09-20T12:51:40.513Z,95925.97
2018-09-20T12:54:15.344Z,95925.86
2018-09-20T12:56:49.960Z,95918.00
2018-09-20T12:59:24.775Z,95919.00
2018-09-20T13:01:59.475Z,95920.30
2018-09-20T13:04:34.239Z,95908.34
2018-09-20T13:07:09.285Z,95907.13
2018-09-20T13:09:43.803Z,95908.50
2018-09-20T13:12:18.604Z,95908.50
2018-09-20T13:14:53.130Z,95906.80
2018-09-20T13:17:28.075Z,95898.94
2018-09-20T13:20:03.194Z,95898.77
2018-09-20T13:22:38.191Z,95902.94
2018-09-20T13:25:12.608Z,95896.08
2018-09-20T13:27:47.316Z,95900.59
2018-09-20T13:30:21.792Z,95897.62
2018-09-20T13:32:56.231Z,95897.09
2018-09-20T13:35:30.920Z,95890.98
2018-09-20T13:38:06.315Z,95888.70
2018-09-20T13:40:41.300Z,95883.48
2018-09-20T13:43:16.588Z,95882.59
2018-09-20T13:45:54.160Z,95879.02
2018-09-20T13:48:29.007Z,95876.77
2018-09-20T13:51:03.639Z,95875.40
2018-09-20T13:53:38.208Z,95877.31
2018-09-20T13:56:12.738Z,95869.34
2018-09-20T13:58:47.871Z,95871.94
2018-09-20T14:01:22.822Z,95863.94
2018-09-20T14:03:57.275Z,95866.07
2018-09-20T14:06:31.881Z,95860.22
2018-09-20T14:09:39.855Z,95861.66
2018-09-20T14:12:14.845Z,95856.95
2018-09-20T14:14:49.533Z,95863.78
2018-09-20T14:17:23.845Z,95860.75
2018-09-20T14:19:58.564Z,95859.63
2018-09-20T14:22:33.024Z,95853.95
2018-09-20T14:25:07.355Z,95851.04
2018-09-20T14:27:41.858Z,95844.70
2018-09-20T14:30:16.287Z,95841.17
2018-09-20T14:32:50.627Z,95840.22
2018-09-20T14:35:25.384Z,95843.26
2018-09-20T14:38:00.041Z,95837.55
2018-09-20T14:40:34.776Z,95836.92
2018-09-20T14:43:09.597Z,95835.06
2018-09-20T14:45:44.724Z,95829.90
2018-09-20T14:48:19.031Z,95831.58
2018-09-20T14:50:53.936Z,95830.79
2018-09-20T14:53:28.332Z,95825.38
2018-09-20T14:56:02.716Z,95828.60
2018-09-20T14:58:37.423Z,95826.34
2018-09-20T15:01:12.072Z,95827.78
2018-09-20T15:03:46.542Z,95821.30
2018-09-20T15:06:21.093Z,95816.39
2018-09-20T15:08:55.760Z,95816.10
2018-09-20T15:11:30.684Z,95818.13
2018-09-20T15:14:05.460Z,95812.86
2018-09-20T15:16:39.899Z,95813.09
2018-09-20T15:19:14.259Z,95810.55
2018-09-20T15:21:48.754Z,95802.66
2018-09-20T15:24:23.307Z,95808.64
2018-09-20T15:27:00.873Z,95813.54
2018-09-20T15:29:36.179Z,95811.57
2018-09-20T15:32:10.693Z,95809.63
2018-09-20T15:34:45.213Z,95805.80
2018-09-20T15:37:20.268Z,95796.05
2018-09-20T15:39:55.227Z,95802.36
2018-09-20T15:42:30.950Z,95798.45
2018-09-20T15:45:06.161Z,95800.11
2018-09-20T15:47:41.284Z,95795.65
2018-09-20T15:50:16.515Z,95794.23
2018-09-20T15:52:50.992Z,95792.10
2018-09-20T15:55:25.613Z,95796.70
2018-09-20T15:57:59.987Z,95793.08
2018-09-20T16:00:35.560Z,95791.05
2018-09-20T16:03:10.366Z,95792.64
2018-09-20T16:05:47.033Z,95791.13
2018-09-20T16:08:21.864Z,95777.38
2018-09-20T16:11:04.293Z,95778.73
2018-09-20T16:13:39.155Z,95774.03
2018-09-20T16:16:13.636Z,95774.36
2018-09-20T16:18:48.566Z,95766.72
2018-09-20T16:21:23.172Z,95769.97
2018-09-20T16:23:57.685Z,95765.75
2018-09-20T16:26:36.067Z,95763.41
2018-09-20T16:29:52.811Z,95767.17
2018-09-20T16:36:02.476Z,95760.59
2018-09-20T16:38:48.594Z,95758.22
2018-09-20T16:41:29.407Z,95760.28
2018-09-20T16:44:04.377Z,95757.61
2018-09-20T16:46:39.772Z,95755.41
2018-09-20T16:49:15.052Z,95754.05
2018-09-20T16:51:49.556Z,95750.50
2018-09-20T16:54:24.383Z,95751.23
2018-09-20T16:56:59.097Z,95752.20
2018-09-20T16:59:33.808Z,95751.05
2018-09-20T17:02:08.772Z,95752.45
2018-09-20T17:04:43.199Z,95753.67
2018-09-20T17:07:18.083Z,95745.60
2018-09-20T17:09:52.745Z,95746.82
2018-09-20T17:12:27.065Z,95749.38
2018-09-20T17:15:02.176Z,95752.95
2018-09-20T17:17:37.188Z,95748.09
2018-09-20T17:20:11.665Z,95754.67
2018-09-20T17:22:47.270Z,95752.51
2018-09-20T17:25:22.267Z,95746.84
2018-09-20T17:27:56.964Z,95745.12
2018-09-20T17:30:31.765Z,95748.28
2018-09-20T17:33:06.592Z,95747.70
2018-09-20T17:35:41.388Z,95749.45
2018-09-20T17:38:16.035Z,95749.13
2018-09-20T17:40:57.632Z,95747.66
2018-09-20T17:44:07.659Z,95752.59
2018-09-20T17:46:42.244Z,95750.57
2018-09-20T17:49:16.836Z,95753.10
2018-09-20T17:51:51.906Z,95748.52
2018-09-20T17:54:26.598Z,95752.03
2018-09-20T17:57:02.568Z,95752.00
2018-09-20T17:59:37.174Z,95753.72
2018-09-20T18:02:11.895Z,95747.29
2018-09-20T18:04:47.247Z,95743.20
2018-09-20T18:07:21.718Z,95740.24
2018-09-20T18:09:56.295Z,95746.54
2018-09-20T18:12:31.320Z,95746.38
2018-09-20T18:15:06.208Z,95744.45
2018-09-20T18:17:40.845Z,95750.23
2018-09-20T18:20:16.344Z,95749.43
2018-09-20T18:22:50.684Z,95753.47
2018-09-20T18:25:25.379Z,95755.44
2018-09-20T18:27:59.776Z,95750.88
2018-09-20T18:30:34.656Z,95754.05
2018-09-20T18:33:09.633Z,95754.33
2018-09-20T18:35:44.097Z,95758.17
2018-09-20T18:38:19.171Z,95752.65
2018-09-20T18:40:53.799Z,95762.62
2018-09-20T18:43:28.271Z,95763.09
2018-09-20T18:46:02.998Z,95762.51
2018-09-20T18:48:37.916Z,95766.55
2018-09-20T18:51:12.322Z,95767.11
2018-09-20T18:53:46.641Z,95760.23
2018-09-20T18:56:21.048Z,95762.55
2018-09-20T18:58:55.711Z,95758.79
2018-09-20T19:01:30.124Z,95760.50
2018-09-20T19:04:04.563Z,95758.45
2018-09-20T19:06:39.308Z,95761.92
2018-09-20T19:09:13.737Z,95760.95
2018-09-20T19:11:48.359Z,95756.95
2018-09-20T19:14:22.844Z,95758.98
2018-09-20T19:16:57.476Z,95762.19
2018-09-20T19:19:31.843Z,95755.94
2018-09-20T19:22:06.405Z,95762.63
2018-09-20T19:24:41.073Z,95758.72
2018-09-20T19:27:16.522Z,95754.14
2018-09-20T19:29:51.028Z,95755.93
2018-09-20T19:32:25.357Z,95747.45
2018-09-20T19:35:00.156Z,95750.29
2018-09-20T19:37:34.631Z,95749.38
2018-09-20T19:40:09.800Z,95746.88
2018-09-20T19:42:44.959Z,95748.06
2018-09-20T19:45:19.260Z,95745.18
2018-09-20T19:47:53.776Z,95745.84
2018-09-20T19:50:28.297Z,95747.81
2018-09-20T19:53:02.656Z,95743.33
2018-09-20T19:55:37.440Z,95743.94
2018-09-20T19:58:11.881Z,95741.99
2018-09-20T20:00:46.496Z,95746.06
2018-09-20T20:03:20.881Z,95744.31
2018-09-20T20:05:58.459Z,95740.81
2018-09-20T20:08:35.876Z,95740.93
2018-09-20T20:11:10.500Z,95742.14
2018-09-20T20:13:45.192Z,95737.50
2018-09-20T20:16:19.834Z,95737.06
2018-09-20T20:18:54.519Z,95741.41
2018-09-20T20:21:29.614Z,95742.00
2018-09-20T20:24:04.548Z,95740.50
2018-09-20T20:26:39.303Z,95744.33
2018-09-20T20:29:13.626Z,95737.38
2018-09-20T20:31:48.462Z,95735.84
2018-09-20T20:34:23.124Z,95731.48
2018-09-20T20:36:57.591Z,95727.89
2018-09-20T20:39:32.062Z,95733.53
2018-09-20T20:42:06.700Z,95729.88
2018-09-20T20:44:41.201Z,95734.21
2018-09-20T20:47:15.533Z,95731.45
2018-09-20T20:49:49.927Z,95727.34
2018-09-20T20:52:24.248Z,95722.17
2018-09-20T20:54:58.529Z,95724.13
2018-09-20T20:57:33.176Z,95720.62
2018-09-20T21:00:07.729Z,95718.67
2018-09-20T21:02:42.498Z,95716.11
2018-09-20T21:05:17.076Z,95715.38
2018-09-20T21:07:52.320Z,95713.12
2018-09-20T21:10:27.640Z,95719.63
2018-09-20T21:13:02.066Z,95711.58
2018-09-20T21:15:36.631Z,95701.58
2018-09-20T21:18:10.913Z,95705.67
2018-09-20T21:20:45.340Z,95705.25
2018-09-20T21:23:19.960Z,95701.94
2018-09-20T21:25:54.527Z,95698.22
2018-09-20T21:28:28.956Z,95695.98
2018-09-20T21:31:03.838Z,95693.47
2018-09-20T21:33:38.197Z,95693.63
2018-09-20T21:36:13.000Z,95694.86
2018-09-20T21:38:47.841Z,95693.25
2018-09-20T21:41:22.176Z,95688.52
2018-09-20T21:43:56.680Z,95686.14
2018-09-20T21:46:31.245Z,95680.45
2018-09-20T21:49:06.287Z,95678.56
2018-09-20T21:51:41.152Z,95673.42
2018-09-20T21:54:15.939Z,95674.45
2018-09-20T21:56:50.627Z,95671.92
2018-09-20T21:59:25.057Z,95666.23
2018-09-20T22:02:03.363Z,95665.94
2018-09-20T22:04:38.017Z,95665.55
2018-09-20T22:07:12.998Z,95661.98
2018-09-20T22:09:47.388Z,95656.72
2018-09-20T22:12:22.148Z,95656.06
2018-09-20T22:14:57.048Z,95660.44
2018-09-20T22:17:31.608Z,95661.83
2018-09-20T22:20:06.449Z,95649.89
2018-09-20T22:22:40.781Z,95652.12
2018-09-20T22:25:15.817Z,95651.91
2018-09-20T22:27:50.513Z,95653.44
2018-09-20T22:30:25.104Z,95651.03
2018-09-20T22:32:59.427Z,95646.01
2018-09-20T22:35:33.860Z,95642.63
2018-09-20T22:38:08.558Z,95644.89
2018-09-20T22:40:43.084Z,95644.38
2018-09-20T22:43:17.783Z,95639.94
2018-09-20T22:45:52.362Z,95635.05
2018-09-20T22:48:26.799Z,95638.38
2018-09-20T22:51:01.212Z,95635.67
2018-09-20T22:53:35.628Z,95634.44
2018-09-20T22:56:09.967Z,95631.95
2018-09-20T22:58:44.744Z,95627.88
2018-09-20T23:01:19.616Z,95624.67
2018-09-20T23:03:54.436Z,95624.08
2018-09-20T23:06:29.572Z,95619.42
2018-09-20T23:09:05.632Z,95620.05
2018-09-20T23:11:40.766Z,95621.53
2018-09-20T23:14:15.072Z,95619.92
2018-09-20T23:16:49.351Z,95615.59
2018-09-20T23:19:24.271Z,95621.97
2018-09-20T23:21:58.825Z,95619.09
2018-09-20T23:24:33.273Z,95617.78
2018-09-20T23:27:08.039Z,95618.00
2018-09-20T23:29:42.492Z,95612.83
2018-09-20T23:32:16.817Z,95615.96
2018-09-20T23:34:51.722Z,95610.02
2018-09-20T23:37:26.348Z,95605.91
2018-09-20T23:40:01.024Z,95597.04
2018-09-20T23:42:35.742Z,95601.38
2018-09-20T23:45:10.173Z,95600.44
2018-09-20T23:47:44.684Z,95597.23
2018-09-20T23:50:19.531Z,95589.77
2018-09-20T23:52:54.253Z,95593.25
2018-09-20T23:55:29.080Z,95589.22
2018-09-20T23:58:04.367Z,95586.37
